sensor_id;sensor_type;location;lat;lon;timestamp;temperature;humidity
6690;DHT22;76797;51.590;8.116;2024-02-28T00:01:50;6.10;99.90
6690;DHT22;76797;51.590;8.116;2024-02-28T00:04:16;5.60;99.90
6690;DHT22;76797;51.590;8.116;2024-02-28T00:06:42;5.60;99.90
6690;DHT22;76797;51.590;8.116;2024-02-28T00:09:07;5.60;99.90
6690;DHT22;76797;51.590;8.116;2024-02-28T00:11:33;5.60;99.90
6690;DHT22;76797;51.590;8.116;2024-02-28T00:13:58;5.60;99.90
6690;DHT22;76797;51.590;8.116;2024-02-28T00:16:27;5.60;99.90
6690;DHT22;76797;51.590;8.116;2024-02-28T00:18:53;5.60;99.90
6690;DHT22;76797;51.590;8.116;2024-02-28T00:21:19;5.50;99.90
6690;DHT22;76797;51.590;8.116;2024-02-28T00:23:44;5.90;99.90
6690;DHT22;76797;51.590;8.116;2024-02-28T00:26:12;5.90;99.90
6690;DHT22;76797;51.590;8.116;2024-02-28T00:28:37;5.50;99.90
6690;DHT22;76797;51.590;8.116;2024-02-28T00:31:03;5.80;99.90
6690;DHT22;76797;51.590;8.116;2024-02-28T00:33:29;5.50;99.90
6690;DHT22;76797;51.590;8.116;2024-02-28T00:35:54;5.40;99.90
6690;DHT22;76797;51.590;8.116;2024-02-28T00:38:20;5.40;99.90
6690;DHT22;76797;51.590;8.116;2024-02-28T00:40:45;5.90;99.90
6690;DHT22;76797;51.590;8.116;2024-02-28T00:43:11;5.40;99.90
6690;DHT22;76797;51.590;8.116;2024-02-28T00:45:36;5.40;99.90
6690;DHT22;76797;51.590;8.116;2024-02-28T00:48:02;5.40;99.90
6690;DHT22;76797;51.590;8.116;2024-02-28T00:50:27;5.30;99.90
6690;DHT22;76797;51.590;8.116;2024-02-28T00:52:53;5.30;99.90
6690;DHT22;76797;51.590;8.116;2024-02-28T00:55:18;5.70;99.90
6690;DHT22;76797;51.590;8.116;2024-02-28T00:57:44;5.70;99.90
6690;DHT22;76797;51.590;8.116;2024-02-28T01:00:10;5.30;99.90
6690;DHT22;76797;51.590;8.116;2024-02-28T01:02:36;5.30;99.90
6690;DHT22;76797;51.590;8.116;2024-02-28T01:05:02;5.30;99.90
6690;DHT22;76797;51.590;8.116;2024-02-28T01:07:27;5.30;99.90
6690;DHT22;76797;51.590;8.116;2024-02-28T01:09:53;5.20;99.90
6690;DHT22;76797;51.590;8.116;2024-02-28T01:12:18;5.20;99.90
6690;DHT22;76797;51.590;8.116;2024-02-28T01:14:44;5.20;99.90
6690;DHT22;76797;51.590;8.116;2024-02-28T01:17:09;5.20;99.90
6690;DHT22;76797;51.590;8.116;2024-02-28T01:19:35;5.20;99.90
6690;DHT22;76797;51.590;8.116;2024-02-28T01:22:00;5.20;99.90
6690;DHT22;76797;51.590;8.116;2024-02-28T01:24:26;5.60;99.90
6690;DHT22;76797;51.590;8.116;2024-02-28T01:26:51;5.50;99.90
6690;DHT22;76797;51.590;8.116;2024-02-28T01:29:17;5.10;99.90
6690;DHT22;76797;51.590;8.116;2024-02-28T01:31:42;5.10;99.90
6690;DHT22;76797;51.590;8.116;2024-02-28T01:34:08;5.10;99.90
6690;DHT22;76797;51.590;8.116;2024-02-28T01:36:34;5.10;99.90
6690;DHT22;76797;51.590;8.116;2024-02-28T01:38:59;5.20;99.90
6690;DHT22;76797;51.590;8.116;2024-02-28T01:41:25;5.20;99.90
6690;DHT22;76797;51.590;8.116;2024-02-28T01:43:50;5.60;99.90
6690;DHT22;76797;51.590;8.116;2024-02-28T01:46:28;5.70;99.90
6690;DHT22;76797;51.590;8.116;2024-02-28T01:48:55;5.30;99.90
6690;DHT22;76797;51.590;8.116;2024-02-28T01:51:25;5.80;99.90
6690;DHT22;76797;51.590;8.116;2024-02-28T01:53:53;5.30;99.90
6690;DHT22;76797;51.590;8.116;2024-02-28T01:56:20;5.90;99.90
6690;DHT22;76797;51.590;8.116;2024-02-28T01:58:48;5.90;99.90
6690;DHT22;76797;51.590;8.116;2024-02-28T02:01:15;6.00;99.90
6690;DHT22;76797;51.590;8.116;2024-02-28T02:03:42;6.00;99.90
6690;DHT22;76797;51.590;8.116;2024-02-28T02:06:08;5.90;99.90
6690;DHT22;76797;51.590;8.116;2024-02-28T02:08:33;5.60;99.90
6690;DHT22;76797;51.590;8.116;2024-02-28T02:10:59;5.50;99.90
6690;DHT22;76797;51.590;8.116;2024-02-28T02:13:25;5.60;99.90
6690;DHT22;76797;51.590;8.116;2024-02-28T02:15:50;5.60;99.90
6690;DHT22;76797;51.590;8.116;2024-02-28T02:18:16;5.60;99.90
6690;DHT22;76797;51.590;8.116;2024-02-28T02:20:49;5.70;99.90
6690;DHT22;76797;51.590;8.116;2024-02-28T02:23:15;5.70;99.90
6690;DHT22;76797;51.590;8.116;2024-02-28T02:25:47;5.70;99.90
6690;DHT22;76797;51.590;8.116;2024-02-28T02:28:13;5.80;99.90
6690;DHT22;76797;51.590;8.116;2024-02-28T02:30:39;5.70;99.90
6690;DHT22;76797;51.590;8.116;2024-02-28T02:33:05;5.80;99.90
6690;DHT22;76797;51.590;8.116;2024-02-28T02:35:31;5.80;99.90
6690;DHT22;76797;51.590;8.116;2024-02-28T02:37:57;5.80;99.90
6690;DHT22;76797;51.590;8.116;2024-02-28T02:40:23;5.80;99.90
6690;DHT22;76797;51.590;8.116;2024-02-28T02:42:48;5.80;99.90
6690;DHT22;76797;51.590;8.116;2024-02-28T02:45:14;5.80;99.90
6690;DHT22;76797;51.590;8.116;2024-02-28T02:47:39;5.80;99.90
6690;DHT22;76797;51.590;8.116;2024-02-28T02:50:05;5.80;99.90
6690;DHT22;76797;51.590;8.116;2024-02-28T02:52:32;5.70;99.90
6690;DHT22;76797;51.590;8.116;2024-02-28T02:54:57;5.70;99.90
6690;DHT22;76797;51.590;8.116;2024-02-28T02:57:23;5.70;99.90
6690;DHT22;76797;51.590;8.116;2024-02-28T02:59:48;5.60;99.90
6690;DHT22;76797;51.590;8.116;2024-02-28T03:02:14;5.60;99.90
6690;DHT22;76797;51.590;8.116;2024-02-28T03:04:39;5.60;99.90
6690;DHT22;76797;51.590;8.116;2024-02-28T03:07:05;5.60;99.90
6690;DHT22;76797;51.590;8.116;2024-02-28T03:09:30;5.60;99.90
6690;DHT22;76797;51.590;8.116;2024-02-28T03:11:56;5.60;99.90
6690;DHT22;76797;51.590;8.116;2024-02-28T03:14:21;5.60;99.90
6690;DHT22;76797;51.590;8.116;2024-02-28T03:16:47;5.60;99.90
6690;DHT22;76797;51.590;8.116;2024-02-28T03:19:14;5.60;99.90
6690;DHT22;76797;51.590;8.116;2024-02-28T03:21:40;5.50;99.90
6690;DHT22;76797;51.590;8.116;2024-02-28T03:24:06;5.50;99.90
6690;DHT22;76797;51.590;8.116;2024-02-28T03:26:32;5.50;99.90
6690;DHT22;76797;51.590;8.116;2024-02-28T03:28:58;5.70;99.90
6690;DHT22;76797;51.590;8.116;2024-02-28T03:31:24;5.50;99.90
6690;DHT22;76797;51.590;8.116;2024-02-28T03:33:50;5.50;99.90
6690;DHT22;76797;51.590;8.116;2024-02-28T03:36:16;5.60;99.90
6690;DHT22;76797;51.590;8.116;2024-02-28T03:38:41;5.80;99.90
6690;DHT22;76797;51.590;8.116;2024-02-28T03:41:07;6.10;99.90
6690;DHT22;76797;51.590;8.116;2024-02-28T03:43:33;5.60;99.90
6690;DHT22;76797;51.590;8.116;2024-02-28T03:45:58;5.70;99.90
6690;DHT22;76797;51.590;8.116;2024-02-28T03:48:24;5.50;99.90
6690;DHT22;76797;51.590;8.116;2024-02-28T03:50:49;5.50;99.90
6690;DHT22;76797;51.590;8.116;2024-02-28T03:53:16;5.50;99.90
6690;DHT22;76797;51.590;8.116;2024-02-28T03:55:41;5.50;99.90
6690;DHT22;76797;51.590;8.116;2024-02-28T03:58:09;5.50;99.90
6690;DHT22;76797;51.590;8.116;2024-02-28T04:00:35;5.40;99.90
6690;DHT22;76797;51.590;8.116;2024-02-28T04:03:02;5.40;99.90
6690;DHT22;76797;51.590;8.116;2024-02-28T04:05:28;5.40;99.90
6690;DHT22;76797;51.590;8.116;2024-02-28T04:07:54;5.40;99.90
6690;DHT22;76797;51.590;8.116;2024-02-28T04:10:20;5.40;99.90
6690;DHT22;76797;51.590;8.116;2024-02-28T04:12:46;5.70;99.90
6690;DHT22;76797;51.590;8.116;2024-02-28T04:15:12;5.40;99.90
6690;DHT22;76797;51.590;8.116;2024-02-28T04:17:38;5.30;99.90
6690;DHT22;76797;51.590;8.116;2024-02-28T04:20:07;5.30;99.90
6690;DHT22;76797;51.590;8.116;2024-02-28T04:22:33;5.30;99.90
6690;DHT22;76797;51.590;8.116;2024-02-28T04:24:58;5.30;99.90
6690;DHT22;76797;51.590;8.116;2024-02-28T04:27:24;5.30;99.90
6690;DHT22;76797;51.590;8.116;2024-02-28T04:29:50;5.30;99.90
6690;DHT22;76797;51.590;8.116;2024-02-28T04:32:15;5.30;99.90
6690;DHT22;76797;51.590;8.116;2024-02-28T04:34:41;5.70;99.90
6690;DHT22;76797;51.590;8.116;2024-02-28T04:37:06;5.30;99.90
6690;DHT22;76797;51.590;8.116;2024-02-28T04:39:32;5.30;99.90
6690;DHT22;76797;51.590;8.116;2024-02-28T04:41:57;5.30;99.90
6690;DHT22;76797;51.590;8.116;2024-02-28T04:44:23;5.40;99.90
6690;DHT22;76797;51.590;8.116;2024-02-28T04:46:48;5.40;99.90
6690;DHT22;76797;51.590;8.116;2024-02-28T04:49:14;5.40;99.90
6690;DHT22;76797;51.590;8.116;2024-02-28T04:51:40;5.40;99.90
6690;DHT22;76797;51.590;8.116;2024-02-28T04:54:05;5.50;99.90
6690;DHT22;76797;51.590;8.116;2024-02-28T04:56:31;5.50;99.90
6690;DHT22;76797;51.590;8.116;2024-02-28T04:58:57;5.90;99.90
6690;DHT22;76797;51.590;8.116;2024-02-28T05:01:22;5.60;99.90
6690;DHT22;76797;51.590;8.116;2024-02-28T05:03:48;5.60;99.90
6690;DHT22;76797;51.590;8.116;2024-02-28T05:06:13;5.60;99.90
6690;DHT22;76797;51.590;8.116;2024-02-28T05:08:39;5.60;99.90
6690;DHT22;76797;51.590;8.116;2024-02-28T05:11:04;6.00;99.90
6690;DHT22;76797;51.590;8.116;2024-02-28T05:13:30;5.70;99.90
6690;DHT22;76797;51.590;8.116;2024-02-28T05:15:55;5.70;99.90
6690;DHT22;76797;51.590;8.116;2024-02-28T05:18:21;5.80;99.90
6690;DHT22;76797;51.590;8.116;2024-02-28T05:20:46;5.80;99.90
6690;DHT22;76797;51.590;8.116;2024-02-28T05:23:12;5.80;99.90
6690;DHT22;76797;51.590;8.116;2024-02-28T05:25:38;5.90;99.90
6690;DHT22;76797;51.590;8.116;2024-02-28T05:28:04;6.40;99.90
6690;DHT22;76797;51.590;8.116;2024-02-28T05:30:29;5.90;99.90
6690;DHT22;76797;51.590;8.116;2024-02-28T05:32:55;5.90;99.90
6690;DHT22;76797;51.590;8.116;2024-02-28T05:35:21;5.90;99.90
6690;DHT22;76797;51.590;8.116;2024-02-28T05:37:46;5.90;99.90
6690;DHT22;76797;51.590;8.116;2024-02-28T05:40:12;5.90;99.90
6690;DHT22;76797;51.590;8.116;2024-02-28T05:42:38;6.40;99.90
6690;DHT22;76797;51.590;8.116;2024-02-28T05:45:05;5.90;99.90
6690;DHT22;76797;51.590;8.116;2024-02-28T05:47:31;5.90;99.90
6690;DHT22;76797;51.590;8.116;2024-02-28T05:49:56;5.90;99.90
6690;DHT22;76797;51.590;8.116;2024-02-28T05:52:24;5.90;99.90
6690;DHT22;76797;51.590;8.116;2024-02-28T05:54:50;6.40;99.90
6690;DHT22;76797;51.590;8.116;2024-02-28T05:57:16;5.90;99.90
6690;DHT22;76797;51.590;8.116;2024-02-28T05:59:42;6.40;99.90
6690;DHT22;76797;51.590;8.116;2024-02-28T06:02:07;5.90;99.90
6690;DHT22;76797;51.590;8.116;2024-02-28T06:04:33;5.90;99.90
6690;DHT22;76797;51.590;8.116;2024-02-28T06:06:58;5.90;99.90
6690;DHT22;76797;51.590;8.116;2024-02-28T06:09:25;5.90;99.90
6690;DHT22;76797;51.590;8.116;2024-02-28T06:11:52;6.20;99.90
6690;DHT22;76797;51.590;8.116;2024-02-28T06:14:18;6.40;99.90
6690;DHT22;76797;51.590;8.116;2024-02-28T06:16:46;5.90;99.90
6690;DHT22;76797;51.590;8.116;2024-02-28T06:19:12;5.90;99.90
6690;DHT22;76797;51.590;8.116;2024-02-28T06:21:38;6.30;99.90
6690;DHT22;76797;51.590;8.116;2024-02-28T06:24:03;5.90;99.90
6690;DHT22;76797;51.590;8.116;2024-02-28T06:26:30;5.90;99.90
6690;DHT22;76797;51.590;8.116;2024-02-28T06:28:57;5.80;99.90
6690;DHT22;76797;51.590;8.116;2024-02-28T06:31:27;5.80;99.90
6690;DHT22;76797;51.590;8.116;2024-02-28T06:33:55;6.30;99.90
6690;DHT22;76797;51.590;8.116;2024-02-28T06:36:20;6.30;99.90
6690;DHT22;76797;51.590;8.116;2024-02-28T06:38:46;5.80;99.90
6690;DHT22;76797;51.590;8.116;2024-02-28T06:41:11;5.80;99.90
6690;DHT22;76797;51.590;8.116;2024-02-28T06:43:37;5.80;99.90
6690;DHT22;76797;51.590;8.116;2024-02-28T06:46:03;5.80;99.90
6690;DHT22;76797;51.590;8.116;2024-02-28T06:48:29;5.80;99.90
6690;DHT22;76797;51.590;8.116;2024-02-28T06:50:55;5.80;99.90
6690;DHT22;76797;51.590;8.116;2024-02-28T06:53:21;5.80;99.90
6690;DHT22;76797;51.590;8.116;2024-02-28T06:55:46;6.10;99.90
6690;DHT22;76797;51.590;8.116;2024-02-28T06:58:14;5.80;99.90
6690;DHT22;76797;51.590;8.116;2024-02-28T07:00:39;5.80;99.90
6690;DHT22;76797;51.590;8.116;2024-02-28T07:03:05;6.20;99.90
6690;DHT22;76797;51.590;8.116;2024-02-28T07:05:31;5.80;99.90
6690;DHT22;76797;51.590;8.116;2024-02-28T07:07:56;5.80;99.90
6690;DHT22;76797;51.590;8.116;2024-02-28T07:10:22;5.90;99.90
6690;DHT22;76797;51.590;8.116;2024-02-28T07:12:49;5.90;99.90
6690;DHT22;76797;51.590;8.116;2024-02-28T07:15:14;6.20;99.90
6690;DHT22;76797;51.590;8.116;2024-02-28T07:17:40;5.90;99.90
6690;DHT22;76797;51.590;8.116;2024-02-28T07:20:06;5.90;99.90
6690;DHT22;76797;51.590;8.116;2024-02-28T07:22:32;5.90;99.90
6690;DHT22;76797;51.590;8.116;2024-02-28T07:24:57;6.00;99.90
6690;DHT22;76797;51.590;8.116;2024-02-28T07:27:23;6.40;99.90
6690;DHT22;76797;51.590;8.116;2024-02-28T07:29:49;6.00;99.90
6690;DHT22;76797;51.590;8.116;2024-02-28T07:32:15;6.00;99.90
6690;DHT22;76797;51.590;8.116;2024-02-28T07:34:40;6.60;99.90
6690;DHT22;76797;51.590;8.116;2024-02-28T07:37:06;6.20;99.90
6690;DHT22;76797;51.590;8.116;2024-02-28T07:39:31;6.10;99.90
6690;DHT22;76797;51.590;8.116;2024-02-28T07:41:57;6.10;99.90
6690;DHT22;76797;51.590;8.116;2024-02-28T07:44:22;6.10;99.90
6690;DHT22;76797;51.590;8.116;2024-02-28T07:46:48;6.50;99.90
6690;DHT22;76797;51.590;8.116;2024-02-28T07:49:15;6.10;99.90
6690;DHT22;76797;51.590;8.116;2024-02-28T07:51:41;6.40;99.90
6690;DHT22;76797;51.590;8.116;2024-02-28T07:54:07;6.60;99.90
6690;DHT22;76797;51.590;8.116;2024-02-28T07:56:32;6.10;99.90
6690;DHT22;76797;51.590;8.116;2024-02-28T07:58:58;6.20;99.90
6690;DHT22;76797;51.590;8.116;2024-02-28T08:01:23;6.20;99.90
6690;DHT22;76797;51.590;8.116;2024-02-28T08:03:49;6.20;99.90
6690;DHT22;76797;51.590;8.116;2024-02-28T08:06:15;6.30;99.90
6690;DHT22;76797;51.590;8.116;2024-02-28T08:08:44;6.30;99.90
6690;DHT22;76797;51.590;8.116;2024-02-28T08:11:10;6.40;99.90
6690;DHT22;76797;51.590;8.116;2024-02-28T08:13:36;6.40;99.90
6690;DHT22;76797;51.590;8.116;2024-02-28T08:16:02;6.50;99.90
6690;DHT22;76797;51.590;8.116;2024-02-28T08:18:27;6.50;99.90
6690;DHT22;76797;51.590;8.116;2024-02-28T08:20:54;6.60;99.90
6690;DHT22;76797;51.590;8.116;2024-02-28T08:23:23;7.00;99.90
6690;DHT22;76797;51.590;8.116;2024-02-28T08:25:49;7.00;99.90
6690;DHT22;76797;51.590;8.116;2024-02-28T08:28:14;6.80;99.90
6690;DHT22;76797;51.590;8.116;2024-02-28T08:30:40;6.80;99.90
6690;DHT22;76797;51.590;8.116;2024-02-28T08:33:08;6.90;99.90
6690;DHT22;76797;51.590;8.116;2024-02-28T08:35:36;7.00;99.90
6690;DHT22;76797;51.590;8.116;2024-02-28T08:38:02;7.10;99.90
6690;DHT22;76797;51.590;8.116;2024-02-28T08:40:31;7.20;99.90
6690;DHT22;76797;51.590;8.116;2024-02-28T08:42:57;7.40;99.90
6690;DHT22;76797;51.590;8.116;2024-02-28T08:45:23;7.50;99.90
6690;DHT22;76797;51.590;8.116;2024-02-28T08:47:48;7.60;99.90
6690;DHT22;76797;51.590;8.116;2024-02-28T08:50:14;7.70;99.90
6690;DHT22;76797;51.590;8.116;2024-02-28T08:52:39;7.80;99.90
6690;DHT22;76797;51.590;8.116;2024-02-28T08:55:05;7.90;99.90
6690;DHT22;76797;51.590;8.116;2024-02-28T08:57:31;8.00;99.90
6690;DHT22;76797;51.590;8.116;2024-02-28T08:59:57;8.50;99.90
6690;DHT22;76797;51.590;8.116;2024-02-28T09:02:22;8.10;99.90
6690;DHT22;76797;51.590;8.116;2024-02-28T09:04:48;8.40;99.90
6690;DHT22;76797;51.590;8.116;2024-02-28T09:07:17;8.20;99.90
6690;DHT22;76797;51.590;8.116;2024-02-28T09:09:46;8.60;99.90
6690;DHT22;76797;51.590;8.116;2024-02-28T09:12:11;8.30;99.90
6690;DHT22;76797;51.590;8.116;2024-02-28T09:14:37;8.40;99.90
6690;DHT22;76797;51.590;8.116;2024-02-28T09:17:03;8.50;99.90
6690;DHT22;76797;51.590;8.116;2024-02-28T09:19:30;8.50;99.90
6690;DHT22;76797;51.590;8.116;2024-02-28T09:21:55;8.60;99.90
6690;DHT22;76797;51.590;8.116;2024-02-28T09:24:21;8.50;99.90
6690;DHT22;76797;51.590;8.116;2024-02-28T09:26:46;8.60;99.90
6690;DHT22;76797;51.590;8.116;2024-02-28T09:29:12;8.60;99.90
6690;DHT22;76797;51.590;8.116;2024-02-28T09:31:37;8.90;99.90
6690;DHT22;76797;51.590;8.116;2024-02-28T09:34:03;8.70;99.90
6690;DHT22;76797;51.590;8.116;2024-02-28T09:36:33;8.90;99.90
6690;DHT22;76797;51.590;8.116;2024-02-28T09:39:04;8.80;99.90
6690;DHT22;76797;51.590;8.116;2024-02-28T09:41:30;8.90;99.90
6690;DHT22;76797;51.590;8.116;2024-02-28T09:43:56;8.90;99.90
6690;DHT22;76797;51.590;8.116;2024-02-28T09:46:22;9.00;99.90
6690;DHT22;76797;51.590;8.116;2024-02-28T09:48:48;9.10;99.90
6690;DHT22;76797;51.590;8.116;2024-02-28T09:51:18;9.10;99.90
6690;DHT22;76797;51.590;8.116;2024-02-28T09:53:43;9.20;99.90
6690;DHT22;76797;51.590;8.116;2024-02-28T09:56:09;9.40;99.90
6690;DHT22;76797;51.590;8.116;2024-02-28T09:58:35;9.40;99.90
6690;DHT22;76797;51.590;8.116;2024-02-28T10:01:02;9.50;99.90
6690;DHT22;76797;51.590;8.116;2024-02-28T10:03:30;9.60;99.90
6690;DHT22;76797;51.590;8.116;2024-02-28T10:05:56;9.70;99.90
6690;DHT22;76797;51.590;8.116;2024-02-28T10:08:21;9.70;99.90
6690;DHT22;76797;51.590;8.116;2024-02-28T10:10:48;9.90;99.90
6690;DHT22;76797;51.590;8.116;2024-02-28T10:13:17;9.90;99.90
6690;DHT22;76797;51.590;8.116;2024-02-28T10:15:42;10.00;99.90
6690;DHT22;76797;51.590;8.116;2024-02-28T10:18:08;10.00;99.90
6690;DHT22;76797;51.590;8.116;2024-02-28T10:20:34;10.20;99.90
6690;DHT22;76797;51.590;8.116;2024-02-28T10:23:03;10.10;99.90
6690;DHT22;76797;51.590;8.116;2024-02-28T10:25:29;10.10;99.90
6690;DHT22;76797;51.590;8.116;2024-02-28T10:28:00;10.20;99.90
6690;DHT22;76797;51.590;8.116;2024-02-28T10:30:25;10.30;99.90
6690;DHT22;76797;51.590;8.116;2024-02-28T10:32:51;10.30;99.90
6690;DHT22;76797;51.590;8.116;2024-02-28T10:35:17;10.40;99.90
6690;DHT22;76797;51.590;8.116;2024-02-28T10:37:51;10.40;99.90
6690;DHT22;76797;51.590;8.116;2024-02-28T10:40:17;10.50;99.90
6690;DHT22;76797;51.590;8.116;2024-02-28T10:42:43;10.50;99.90
6690;DHT22;76797;51.590;8.116;2024-02-28T10:45:12;10.60;99.90
6690;DHT22;76797;51.590;8.116;2024-02-28T10:47:38;11.00;99.90
6690;DHT22;76797;51.590;8.116;2024-02-28T10:50:04;10.60;99.90
6690;DHT22;76797;51.590;8.116;2024-02-28T10:52:33;10.70;99.90
6690;DHT22;76797;51.590;8.116;2024-02-28T10:54:59;10.70;99.90
6690;DHT22;76797;51.590;8.116;2024-02-28T10:57:27;10.70;99.90
6690;DHT22;76797;51.590;8.116;2024-02-28T10:59:55;10.90;99.90
6690;DHT22;76797;51.590;8.116;2024-02-28T11:02:22;10.80;99.90
6690;DHT22;76797;51.590;8.116;2024-02-28T11:04:53;10.80;99.90
6690;DHT22;76797;51.590;8.116;2024-02-28T11:07:20;10.90;99.90
6690;DHT22;76797;51.590;8.116;2024-02-28T11:09:46;10.90;99.90
6690;DHT22;76797;51.590;8.116;2024-02-28T11:12:26;10.80;99.90
6690;DHT22;76797;51.590;8.116;2024-02-28T11:14:59;10.80;99.90
6690;DHT22;76797;51.590;8.116;2024-02-28T11:17:27;10.80;99.90
6690;DHT22;76797;51.590;8.116;2024-02-28T11:19:56;10.80;99.90
6690;DHT22;76797;51.590;8.116;2024-02-28T11:22:23;10.70;99.90
6690;DHT22;76797;51.590;8.116;2024-02-28T11:24:49;10.70;99.90
6690;DHT22;76797;51.590;8.116;2024-02-28T11:27:17;11.00;99.90
6690;DHT22;76797;51.590;8.116;2024-02-28T11:29:43;10.90;99.90
6690;DHT22;76797;51.590;8.116;2024-02-28T11:32:11;10.60;99.90
6690;DHT22;76797;51.590;8.116;2024-02-28T11:34:37;11.00;99.90
6690;DHT22;76797;51.590;8.116;2024-02-28T11:37:06;10.60;99.90
6690;DHT22;76797;51.590;8.116;2024-02-28T11:39:31;11.10;99.90
6690;DHT22;76797;51.590;8.116;2024-02-28T11:42:14;10.60;99.90
6690;DHT22;76797;51.590;8.116;2024-02-28T11:44:41;10.60;99.90
6690;DHT22;76797;51.590;8.116;2024-02-28T11:47:09;11.00;99.90
6690;DHT22;76797;51.590;8.116;2024-02-28T11:49:38;10.70;99.90
6690;DHT22;76797;51.590;8.116;2024-02-28T11:52:04;10.70;99.90
6690;DHT22;76797;51.590;8.116;2024-02-28T11:54:30;10.80;99.90
6690;DHT22;76797;51.590;8.116;2024-02-28T11:56:56;11.10;99.90
6690;DHT22;76797;51.590;8.116;2024-02-28T11:59:22;10.80;99.90
6690;DHT22;76797;51.590;8.116;2024-02-28T12:01:47;10.90;99.90
6690;DHT22;76797;51.590;8.116;2024-02-28T12:04:13;11.00;99.90
6690;DHT22;76797;51.590;8.116;2024-02-28T12:06:39;10.90;99.90
6690;DHT22;76797;51.590;8.116;2024-02-28T12:09:07;10.90;99.90
6690;DHT22;76797;51.590;8.116;2024-02-28T12:11:36;10.90;99.90
6690;DHT22;76797;51.590;8.116;2024-02-28T12:14:07;10.60;99.90
6690;DHT22;76797;51.590;8.116;2024-02-28T12:16:37;11.00;99.90
6690;DHT22;76797;51.590;8.116;2024-02-28T12:19:07;11.00;99.90
6690;DHT22;76797;51.590;8.116;2024-02-28T12:21:33;11.10;99.90
6690;DHT22;76797;51.590;8.116;2024-02-28T12:23:58;11.50;99.90
6690;DHT22;76797;51.590;8.116;2024-02-28T12:26:24;11.10;99.90
6690;DHT22;76797;51.590;8.116;2024-02-28T12:28:49;11.20;99.90
6690;DHT22;76797;51.590;8.116;2024-02-28T12:31:15;11.20;99.90
6690;DHT22;76797;51.590;8.116;2024-02-28T12:33:40;11.20;99.90
6690;DHT22;76797;51.590;8.116;2024-02-28T12:36:07;11.20;99.90
6690;DHT22;76797;51.590;8.116;2024-02-28T12:38:33;11.20;99.90
6690;DHT22;76797;51.590;8.116;2024-02-28T12:40:58;11.20;99.90
6690;DHT22;76797;51.590;8.116;2024-02-28T12:43:24;11.20;99.90
6690;DHT22;76797;51.590;8.116;2024-02-28T12:45:52;11.50;99.90
6690;DHT22;76797;51.590;8.116;2024-02-28T12:48:18;11.30;99.90
6690;DHT22;76797;51.590;8.116;2024-02-28T12:50:43;11.40;99.90
6690;DHT22;76797;51.590;8.116;2024-02-28T12:53:09;11.40;99.90
6690;DHT22;76797;51.590;8.116;2024-02-28T12:55:34;11.40;99.90
6690;DHT22;76797;51.590;8.116;2024-02-28T12:58:01;11.50;99.90
6690;DHT22;76797;51.590;8.116;2024-02-28T13:00:30;11.50;99.90
6690;DHT22;76797;51.590;8.116;2024-02-28T13:02:55;11.50;99.90
6690;DHT22;76797;51.590;8.116;2024-02-28T13:05:21;11.60;99.90
6690;DHT22;76797;51.590;8.116;2024-02-28T13:07:46;11.60;99.90
6690;DHT22;76797;51.590;8.116;2024-02-28T13:10:12;11.60;99.90
6690;DHT22;76797;51.590;8.116;2024-02-28T13:12:38;11.60;99.90
6690;DHT22;76797;51.590;8.116;2024-02-28T13:15:05;11.70;99.90
6690;DHT22;76797;51.590;8.116;2024-02-28T13:17:30;11.70;99.90
6690;DHT22;76797;51.590;8.116;2024-02-28T13:19:56;11.80;99.90
6690;DHT22;76797;51.590;8.116;2024-02-28T13:22:21;11.70;99.90
6690;DHT22;76797;51.590;8.116;2024-02-28T13:24:47;11.80;99.90
6690;DHT22;76797;51.590;8.116;2024-02-28T13:27:12;11.80;99.90
6690;DHT22;76797;51.590;8.116;2024-02-28T13:29:38;11.80;99.90
6690;DHT22;76797;51.590;8.116;2024-02-28T13:32:04;11.80;99.90
6690;DHT22;76797;51.590;8.116;2024-02-28T13:34:29;11.80;99.90
6690;DHT22;76797;51.590;8.116;2024-02-28T13:36:55;11.80;99.90
6690;DHT22;76797;51.590;8.116;2024-02-28T13:39:21;11.90;99.90
6690;DHT22;76797;51.590;8.116;2024-02-28T13:41:49;11.80;99.90
6690;DHT22;76797;51.590;8.116;2024-02-28T13:44:17;12.30;99.90
6690;DHT22;76797;51.590;8.116;2024-02-28T13:46:42;11.90;99.90
6690;DHT22;76797;51.590;8.116;2024-02-28T13:49:08;11.90;99.90
6690;DHT22;76797;51.590;8.116;2024-02-28T13:51:33;12.00;99.90
6690;DHT22;76797;51.590;8.116;2024-02-28T13:53:59;12.20;99.90
6690;DHT22;76797;51.590;8.116;2024-02-28T13:56:24;12.00;99.90
6690;DHT22;76797;51.590;8.116;2024-02-28T13:58:50;12.10;99.90
6690;DHT22;76797;51.590;8.116;2024-02-28T14:01:16;12.10;99.90
6690;DHT22;76797;51.590;8.116;2024-02-28T14:03:43;12.10;99.90
6690;DHT22;76797;51.590;8.116;2024-02-28T14:06:08;12.20;99.90
6690;DHT22;76797;51.590;8.116;2024-02-28T14:08:34;12.30;99.90
6690;DHT22;76797;51.590;8.116;2024-02-28T14:10:59;12.70;99.90
6690;DHT22;76797;51.590;8.116;2024-02-28T14:13:25;12.30;99.90
6690;DHT22;76797;51.590;8.116;2024-02-28T14:15:50;12.30;99.90
6690;DHT22;76797;51.590;8.116;2024-02-28T14:18:16;12.40;99.90
6690;DHT22;76797;51.590;8.116;2024-02-28T14:20:43;12.40;99.90
6690;DHT22;76797;51.590;8.116;2024-02-28T14:23:08;12.40;99.90
6690;DHT22;76797;51.590;8.116;2024-02-28T14:25:34;12.90;99.90
6690;DHT22;76797;51.590;8.116;2024-02-28T14:28:00;12.40;99.90
6690;DHT22;76797;51.590;8.116;2024-02-28T14:30:25;12.40;99.90
6690;DHT22;76797;51.590;8.116;2024-02-28T14:32:51;12.40;99.90
6690;DHT22;76797;51.590;8.116;2024-02-28T14:35:16;12.40;99.90
6690;DHT22;76797;51.590;8.116;2024-02-28T14:37:42;12.40;99.90
6690;DHT22;76797;51.590;8.116;2024-02-28T14:40:09;12.40;99.90
6690;DHT22;76797;51.590;8.116;2024-02-28T14:42:36;12.40;99.90
6690;DHT22;76797;51.590;8.116;2024-02-28T14:45:02;12.80;99.90
6690;DHT22;76797;51.590;8.116;2024-02-28T14:47:28;12.50;99.90
6690;DHT22;76797;51.590;8.116;2024-02-28T14:49:53;12.40;99.90
6690;DHT22;76797;51.590;8.116;2024-02-28T14:52:19;12.40;99.90
6690;DHT22;76797;51.590;8.116;2024-02-28T14:54:45;12.40;99.90
6690;DHT22;76797;51.590;8.116;2024-02-28T14:57:11;12.40;99.90
6690;DHT22;76797;51.590;8.116;2024-02-28T14:59:37;12.40;99.90
6690;DHT22;76797;51.590;8.116;2024-02-28T15:02:02;12.40;99.90
6690;DHT22;76797;51.590;8.116;2024-02-28T15:04:28;12.40;99.90
6690;DHT22;76797;51.590;8.116;2024-02-28T15:06:54;12.40;99.90
6690;DHT22;76797;51.590;8.116;2024-02-28T15:09:20;12.40;99.90
6690;DHT22;76797;51.590;8.116;2024-02-28T15:11:50;12.40;99.90
6690;DHT22;76797;51.590;8.116;2024-02-28T15:14:15;12.30;99.90
6690;DHT22;76797;51.590;8.116;2024-02-28T15:16:41;12.30;99.90
6690;DHT22;76797;51.590;8.116;2024-02-28T15:19:06;12.40;99.90
6690;DHT22;76797;51.590;8.116;2024-02-28T15:21:32;12.30;99.90
6690;DHT22;76797;51.590;8.116;2024-02-28T15:23:58;12.30;99.90
6690;DHT22;76797;51.590;8.116;2024-02-28T15:26:23;12.30;99.90
6690;DHT22;76797;51.590;8.116;2024-02-28T15:28:49;12.30;99.90
6690;DHT22;76797;51.590;8.116;2024-02-28T15:31:15;12.30;99.90
6690;DHT22;76797;51.590;8.116;2024-02-28T15:33:40;12.30;99.90
6690;DHT22;76797;51.590;8.116;2024-02-28T15:36:06;12.30;99.90
6690;DHT22;76797;51.590;8.116;2024-02-28T15:38:32;12.30;99.90
6690;DHT22;76797;51.590;8.116;2024-02-28T15:40:58;12.60;99.90
6690;DHT22;76797;51.590;8.116;2024-02-28T15:43:23;12.30;99.90
6690;DHT22;76797;51.590;8.116;2024-02-28T15:45:49;12.20;99.90
6690;DHT22;76797;51.590;8.116;2024-02-28T15:48:15;12.20;99.90
6690;DHT22;76797;51.590;8.116;2024-02-28T15:50:41;12.20;99.90